createdAt,value
2018-10-19T00:00:41.327Z,0.00
2018-10-19T00:01:41.340Z,0.00
2018-10-19T00:02:41.355Z,0.00
2018-10-19T00:03:41.381Z,0.00
2018-10-19T00:04:41.400Z,0.00
2018-10-19T00:05:41.412Z,0.00
2018-10-19T00:06:41.443Z,0.00
2018-10-19T00:07:41.453Z,0.00
2018-10-19T00:08:41.468Z,0.00
2018-10-19T00:09:41.490Z,0.00
2018-10-19T00:10:41.503Z,0.00
2018-10-19T00:11:41.522Z,0.00
2018-10-19T00:12:41.587Z,0.00
2018-10-19T00:13:41.565Z,0.00
2018-10-19T00:14:41.569Z,0.00
2018-10-19T00:15:41.598Z,0.00
2018-10-19T00:16:41.612Z,0.00
2018-10-19T00:17:41.627Z,0.00
2018-10-19T00:18:41.636Z,0.00
2018-10-19T00:19:41.662Z,0.00
2018-10-19T00:20:41.680Z,0.00
2018-10-19T00:21:41.692Z,0.00
2018-10-19T00:22:41.717Z,0.00
2018-10-19T00:23:41.731Z,0.00
2018-10-19T00:24:41.740Z,0.00
2018-10-19T00:25:41.765Z,0.00
2018-10-19T00:26:41.785Z,0.00
2018-10-19T00:27:41.798Z,0.00
2018-10-19T00:28:41.820Z,0.00
2018-10-19T00:29:41.835Z,0.00
2018-10-19T00:30:41.845Z,0.00
2018-10-19T00:31:41.871Z,0.00
2018-10-19T00:32:41.890Z,0.00
2018-10-19T00:33:41.915Z,0.00
2018-10-19T00:34:41.912Z,0.00
2018-10-19T00:35:41.939Z,0.00
2018-10-19T00:36:41.987Z,0.00
2018-10-19T00:37:41.969Z,0.00
2018-10-19T00:38:41.997Z,0.00
2018-10-19T00:39:42.012Z,0.00
2018-10-19T00:40:42.020Z,0.00
2018-10-19T00:41:42.048Z,0.00
2018-10-19T00:42:42.061Z,0.00
2018-10-19T00:43:42.076Z,0.00
2018-10-19T00:44:42.085Z,0.00
2018-10-19T00:45:42.111Z,0.00
2018-10-19T00:46:42.127Z,0.00
2018-10-19T00:47:42.140Z,0.00
2018-10-19T00:48:42.170Z,0.00
2018-10-19T00:49:42.184Z,0.00
2018-10-19T00:50:42.194Z,0.00
2018-10-19T00:51:42.218Z,0.00
2018-10-19T00:52:42.241Z,0.00
2018-10-19T00:53:42.253Z,0.00
2018-10-19T00:54:42.273Z,0.00
2018-10-19T00:55:42.289Z,0.00
2018-10-19T00:56:42.301Z,0.00
2018-10-19T00:57:42.328Z,0.00
2018-10-19T00:58:42.342Z,0.00
2018-10-19T00:59:42.356Z,0.00
2018-10-19T01:00:42.366Z,0.00
2018-10-19T01:01:42.391Z,0.00
2018-10-19T01:02:42.402Z,0.00
2018-10-19T01:03:42.418Z,0.00
2018-10-19T01:04:42.447Z,0.00
2018-10-19T01:05:42.460Z,0.00
2018-10-19T01:06:42.472Z,0.00
2018-10-19T01:07:42.498Z,0.00
2018-10-19T01:08:42.527Z,0.00
2018-10-19T01:09:42.530Z,0.00
2018-10-19T01:10:42.539Z,0.00
2018-10-19T01:11:42.567Z,0.00
2018-10-19T01:12:42.576Z,0.00
2018-10-19T01:13:42.588Z,0.00
2018-10-19T01:14:42.620Z,0.00
2018-10-19T01:15:42.634Z,0.00
2018-10-19T01:16:42.643Z,0.00
2018-10-19T01:17:42.661Z,0.00
2018-10-19T01:18:42.682Z,0.00
2018-10-19T01:19:42.694Z,0.00
2018-10-19T01:20:42.713Z,0.00
2018-10-19T01:21:42.740Z,0.00
2018-10-19T01:22:42.748Z,0.00
2018-10-19T01:23:42.774Z,0.00
2018-10-19T01:24:42.783Z,0.00
2018-10-19T01:25:42.808Z,0.00
2018-10-19T01:26:42.821Z,0.00
2018-10-19T01:27:42.834Z,0.00
2018-10-19T01:28:42.856Z,0.00
2018-10-19T01:29:42.869Z,0.00
2018-10-19T01:30:42.884Z,0.00
2018-10-19T01:31:42.911Z,0.00
2018-10-19T01:32:42.920Z,0.00
2018-10-19T01:33:42.933Z,0.00
2018-10-19T01:34:42.950Z,0.00
2018-10-19T01:35:42.976Z,0.00
2018-10-19T01:36:43.004Z,0.00
2018-10-19T01:37:43.006Z,0.00
2018-10-19T01:38:43.029Z,0.00
2018-10-19T01:39:43.042Z,0.00
2018-10-19T01:40:43.062Z,0.00
2018-10-19T01:41:43.073Z,0.00
2018-10-19T01:42:43.096Z,0.00
2018-10-19T01:43:43.111Z,0.00
2018-10-19T01:44:43.121Z,0.00
2018-10-19T01:45:43.147Z,0.00
2018-10-19T01:46:43.166Z,0.00
2018-10-19T01:47:43.178Z,0.00
2018-10-19T01:48:43.189Z,0.00
2018-10-19T01:49:43.215Z,0.00
2018-10-19T01:50:43.225Z,0.00
2018-10-19T01:51:43.243Z,0.00
2018-10-19T01:52:43.257Z,0.00
2018-10-19T01:53:43.283Z,0.00
2018-10-19T01:54:43.295Z,0.00
2018-10-19T01:55:43.305Z,0.00
2018-10-19T01:56:43.348Z,0.00
2018-10-19T01:57:43.350Z,0.00
2018-10-19T01:58:43.364Z,0.00
2018-10-19T01:59:43.380Z,0.00
2018-10-19T02:00:43.400Z,0.00
2018-10-19T02:01:43.413Z,0.00
2018-10-19T02:02:43.430Z,0.00
2018-10-19T02:03:43.456Z,0.00
2018-10-19T02:04:43.477Z,0.00
2018-10-19T02:05:43.478Z,0.00
2018-10-19T02:06:43.494Z,0.00
2018-10-19T02:07:43.519Z,0.00
2018-10-19T02:08:43.537Z,0.00
2018-10-19T02:09:43.551Z,0.00
2018-10-19T02:10:43.567Z,0.00
2018-10-19T02:11:43.591Z,0.00
2018-10-19T02:12:43.599Z,0.00
2018-10-19T02:13:43.617Z,0.00
2018-10-19T02:14:43.625Z,0.00
2018-10-19T02:15:43.650Z,0.00
2018-10-19T02:16:43.669Z,0.00
2018-10-19T02:17:43.681Z,0.00
2018-10-19T02:18:43.694Z,0.00
2018-10-19T02:19:43.719Z,0.00
2018-10-19T02:20:43.736Z,0.00
2018-10-19T02:21:43.750Z,0.00
2018-10-19T02:22:43.762Z,0.00
2018-10-19T02:23:43.788Z,0.00
2018-10-19T02:24:43.798Z,0.00
2018-10-19T02:25:43.812Z,0.00
2018-10-19T02:26:43.828Z,0.00
2018-10-19T02:27:43.854Z,0.00
2018-10-19T02:28:43.863Z,0.00
2018-10-19T02:29:43.878Z,0.00
2018-10-19T02:30:43.892Z,0.00
2018-10-19T02:31:43.919Z,0.00
2018-10-19T02:32:43.937Z,0.00
2018-10-19T02:33:43.963Z,0.00
2018-10-19T02:34:43.958Z,0.00
2018-10-19T02:35:43.983Z,0.00
2018-10-19T02:36:44.000Z,0.00
2018-10-19T02:37:44.015Z,0.00
2018-10-19T02:38:44.032Z,0.00
2018-10-19T02:39:44.047Z,0.00
2018-10-19T02:40:44.066Z,0.00
2018-10-19T02:41:44.081Z,0.00
2018-10-19T02:42:44.096Z,0.00
2018-10-19T02:43:44.113Z,0.00
2018-10-19T02:44:44.132Z,0.00
2018-10-19T02:45:44.147Z,0.00
2018-10-19T02:46:44.161Z,0.00
2018-10-19T02:47:44.171Z,0.00
2018-10-19T02:48:44.189Z,0.00
2018-10-19T02:49:44.216Z,0.00
2018-10-19T02:50:44.226Z,0.00
2018-10-19T02:51:44.245Z,0.00
2018-10-19T02:52:44.257Z,0.00
2018-10-19T02:53:44.284Z,0.00
2018-10-19T02:54:44.295Z,0.00
2018-10-19T02:55:44.308Z,0.00
2018-10-19T02:56:44.318Z,0.00
2018-10-19T02:57:44.344Z,0.00
2018-10-19T02:58:44.361Z,0.00
2018-10-19T02:59:44.375Z,0.00
2018-10-19T03:00:44.385Z,0.00
2018-10-19T03:01:44.398Z,0.00
2018-10-19T03:02:44.425Z,0.00
2018-10-19T03:03:44.440Z,0.00
2018-10-19T03:04:44.459Z,0.00
2018-10-19T03:05:44.471Z,0.00
2018-10-19T03:06:44.490Z,0.00
2018-10-19T03:07:44.504Z,0.00
2018-10-19T03:08:44.523Z,0.00
2018-10-19T03:09:44.534Z,0.00
2018-10-19T03:10:44.563Z,0.00
2018-10-19T03:11:44.640Z,0.00
2018-10-19T03:12:44.587Z,0.00
2018-10-19T03:13:44.600Z,0.00
2018-10-19T03:14:44.615Z,0.00
2018-10-19T03:15:44.641Z,0.00
2018-10-19T03:16:44.649Z,0.00
2018-10-19T03:17:44.663Z,0.00
2018-10-19T03:18:44.678Z,0.00
2018-10-19T03:19:44.707Z,0.00
2018-10-19T03:20:44.722Z,0.00
2018-10-19T03:21:44.737Z,0.00
2018-10-19T03:22:44.743Z,0.00
2018-10-19T03:23:44.757Z,0.00
2018-10-19T03:24:44.796Z,0.00
2018-10-19T03:25:44.800Z,0.00
2018-10-19T03:26:44.819Z,0.00
2018-10-19T03:27:44.830Z,0.00
2018-10-19T03:28:44.840Z,0.00
2018-10-19T03:29:44.866Z,0.00
2018-10-19T03:30:44.913Z,0.00
2018-10-19T03:31:44.896Z,0.00
2018-10-19T03:32:44.905Z,0.00
2018-10-19T03:33:44.932Z,0.00
2018-10-19T03:34:44.944Z,0.00
2018-10-19T03:35:44.970Z,0.00
2018-10-19T03:36:44.975Z,0.00
2018-10-19T03:37:44.990Z,0.00
2018-10-19T03:38:45.012Z,0.00
2018-10-19T03:39:45.026Z,0.00
2018-10-19T03:40:45.043Z,0.00
2018-10-19T03:41:45.071Z,0.00
2018-10-19T03:42:45.080Z,0.00
2018-10-19T03:43:45.093Z,0.00
2018-10-19T03:44:45.103Z,0.00
2018-10-19T03:45:45.116Z,0.00
2018-10-19T03:46:45.139Z,0.00
2018-10-19T03:47:45.161Z,0.00
2018-10-19T03:48:45.169Z,0.00
2018-10-19T03:49:45.184Z,0.00
2018-10-19T03:50:45.198Z,0.00
2018-10-19T03:51:45.224Z,0.00
2018-10-19T03:52:45.242Z,0.00
2018-10-19T03:53:45.255Z,0.00
2018-10-19T03:54:45.263Z,0.00
2018-10-19T03:55:45.289Z,0.00
2018-10-19T03:56:45.307Z,0.00
2018-10-19T03:57:45.320Z,0.00
2018-10-19T03:58:45.335Z,0.00
2018-10-19T03:59:45.351Z,0.00
2018-10-19T04:00:45.359Z,0.00
2018-10-19T04:01:45.384Z,0.00
2018-10-19T04:02:45.404Z,0.00
2018-10-19T04:03:45.444Z,0.00
2018-10-19T04:04:45.427Z,0.00
2018-10-19T04:05:45.452Z,0.00
2018-10-19T04:06:45.463Z,0.00
2018-10-19T04:07:45.477Z,0.00
2018-10-19T04:08:45.497Z,0.00
2018-10-19T04:09:45.508Z,0.00
2018-10-19T04:10:45.533Z,0.00
2018-10-19T04:11:45.544Z,0.00
2018-10-19T04:12:45.564Z,0.00
2018-10-19T04:13:45.576Z,0.00
2018-10-19T04:14:45.588Z,0.00
2018-10-19T04:15:45.617Z,0.00
2018-10-19T04:16:45.623Z,0.00
2018-10-19T04:17:45.637Z,0.00
2018-10-19T04:18:45.649Z,0.00
2018-10-19T04:19:45.693Z,0.00
2018-10-19T04:20:45.696Z,0.00
2018-10-19T04:21:45.709Z,0.00
2018-10-19T04:22:45.723Z,0.00
2018-10-19T04:23:45.736Z,0.00
2018-10-19T04:24:45.750Z,0.00
2018-10-19T04:25:45.772Z,0.00
2018-10-19T04:26:45.790Z,0.00
2018-10-19T04:27:45.888Z,0.00
2018-10-19T04:28:45.823Z,0.00
2018-10-19T04:29:45.824Z,0.00
2018-10-19T04:30:45.853Z,0.00
2018-10-19T04:31:45.864Z,0.00
2018-10-19T04:32:45.883Z,0.00
2018-10-19T04:33:45.896Z,0.00
2018-10-19T04:34:45.906Z,0.00
2018-10-19T04:35:45.920Z,0.00
2018-10-19T04:36:45.962Z,0.00
2018-10-19T04:37:45.964Z,0.00
2018-10-19T04:38:45.974Z,0.00
2018-10-19T04:39:45.991Z,0.00
2018-10-19T04:40:46.010Z,0.00
2018-10-19T04:41:46.110Z,0.00
2018-10-19T04:42:46.047Z,0.00
2018-10-19T04:43:46.059Z,0.00
2018-10-19T04:44:46.065Z,0.00
2018-10-19T04:45:46.079Z,0.00
2018-10-19T04:46:46.104Z,0.00
2018-10-19T04:47:46.168Z,0.00
2018-10-19T04:48:46.148Z,0.00
2018-10-19T04:49:46.149Z,0.00
2018-10-19T04:50:46.157Z,0.00
2018-10-19T04:51:46.171Z,0.00
2018-10-19T04:52:46.189Z,0.00
2018-10-19T04:53:46.269Z,0.00
2018-10-19T04:54:46.235Z,0.00
2018-10-19T04:55:46.243Z,0.00
2018-10-19T04:56:46.254Z,0.00
2018-10-19T04:57:46.272Z,0.00
2018-10-19T04:58:46.295Z,0.00
2018-10-19T04:59:46.309Z,0.00
2018-10-19T05:00:46.317Z,0.00
2018-10-19T05:01:46.333Z,0.00
2018-10-19T05:02:46.493Z,0.00
2018-10-19T05:03:46.373Z,0.00
2018-10-19T05:04:46.500Z,0.00
2018-10-19T05:05:46.487Z,0.00
2018-10-19T05:06:46.513Z,0.00
2018-10-19T05:07:46.427Z,0.00
2018-10-19T05:08:46.445Z,0.00
2018-10-19T05:09:46.471Z,0.00
2018-10-19T05:10:46.481Z,0.00
2018-10-19T05:11:46.495Z,0.00
2018-10-19T05:12:46.512Z,0.00
2018-10-19T05:13:46.532Z,0.00
2018-10-19T05:14:46.552Z,0.00
2018-10-19T05:15:46.566Z,0.00
2018-10-19T05:16:46.574Z,0.00
2018-10-19T05:17:46.587Z,0.00
2018-10-19T05:18:46.601Z,0.00
2018-10-19T05:19:46.614Z,0.00
2018-10-19T05:20:46.642Z,0.00
2018-10-19T05:21:46.656Z,0.00
2018-10-19T05:22:46.681Z,0.00
2018-10-19T05:23:46.681Z,0.00
2018-10-19T05:24:46.765Z,0.00
2018-10-19T05:25:46.724Z,0.00
2018-10-19T05:26:46.736Z,0.00
2018-10-19T05:27:46.749Z,0.00
2018-10-19T05:28:46.759Z,0.00
2018-10-19T05:29:46.778Z,5.63
2018-10-19T05:30:46.817Z,5.63
2018-10-19T05:31:46.817Z,5.63
2018-10-19T05:32:46.869Z,5.63
2018-10-19T05:33:46.842Z,5.63
2018-10-19T05:34:46.852Z,5.63
2018-10-19T05:35:46.878Z,5.63
2018-10-19T05:36:46.900Z,11.25
2018-10-19T05:37:46.911Z,11.25
2018-10-19T05:38:46.920Z,11.25
2018-10-19T05:39:46.932Z,11.25
2018-10-19T05:40:46.954Z,11.25
2018-10-19T05:41:46.976Z,16.88
2018-10-19T05:42:47.004Z,16.88
2018-10-19T05:43:47.007Z,16.88
2018-10-19T05:44:47.014Z,16.88
2018-10-19T05:45:47.028Z,22.50
2018-10-19T05:46:47.056Z,22.50
2018-10-19T05:47:47.070Z,22.50
2018-10-19T05:48:47.087Z,28.13
2018-10-19T05:49:47.093Z,28.13
2018-10-19T05:50:47.113Z,28.13
2018-10-19T05:51:47.135Z,33.75
2018-10-19T05:52:47.165Z,33.75
2018-10-19T05:53:47.168Z,33.75
2018-10-19T05:54:47.175Z,39.38
2018-10-19T05:55:47.189Z,39.38
2018-10-19T05:56:47.219Z,39.38
2018-10-19T05:57:47.235Z,45.00
2018-10-19T05:58:47.244Z,45.00
2018-10-19T05:59:47.259Z,50.63
2018-10-19T06:00:47.267Z,50.63
2018-10-19T06:01:47.293Z,56.25
2018-10-19T06:02:47.319Z,61.88
2018-10-19T06:03:47.326Z,61.88
2018-10-19T06:04:47.336Z,61.88
2018-10-19T06:05:47.349Z,67.50
2018-10-19T06:06:47.361Z,67.50
2018-10-19T06:07:47.385Z,67.50
2018-10-19T06:08:47.405Z,73.13
2018-10-19T06:09:47.421Z,73.13
2018-10-19T06:10:47.427Z,78.75
2018-10-19T06:11:47.441Z,84.38
2018-10-19T06:12:47.470Z,90.00
2018-10-19T06:13:47.592Z,90.00
2018-10-19T06:14:47.500Z,90.00
2018-10-19T06:15:47.513Z,84.38
2018-10-19T06:16:47.526Z,78.75
2018-10-19T06:17:47.548Z,84.38
2018-10-19T06:18:47.564Z,90.00
2018-10-19T06:19:47.577Z,95.63
2018-10-19T06:20:47.589Z,101.25
2018-10-19T06:21:47.601Z,101.25
2018-10-19T06:22:47.629Z,106.88
2018-10-19T06:23:47.642Z,106.88
2018-10-19T06:24:47.660Z,112.50
2018-10-19T06:25:47.719Z,112.50
2018-10-19T06:26:47.686Z,118.13
2018-10-19T06:27:47.712Z,123.75
2018-10-19T06:28:47.723Z,129.38
2018-10-19T06:29:47.735Z,129.38
2018-10-19T06:30:47.750Z,135.00
2018-10-19T06:31:47.760Z,135.00
2018-10-19T06:32:47.779Z,140.63
2018-10-19T06:33:47.977Z,140.63
2018-10-19T06:34:47.816Z,146.25
2018-10-19T06:35:47.829Z,146.25
2018-10-19T06:36:47.860Z,146.25
2018-10-19T06:37:47.861Z,151.88
2018-10-19T06:38:47.892Z,157.50
2018-10-19T06:39:47.900Z,157.50
2018-10-19T06:40:47.955Z,163.13
2018-10-19T06:41:47.921Z,163.13
2018-10-19T06:42:47.942Z,168.75
2018-10-19T06:43:47.965Z,174.38
2018-10-19T06:44:47.979Z,174.38
2018-10-19T06:45:47.988Z,174.38
2018-10-19T06:46:48.018Z,168.75
2018-10-19T06:47:48.033Z,174.38
2018-10-19T06:48:48.070Z,185.63
2018-10-19T06:49:48.060Z,191.25
2018-10-19T06:50:48.069Z,196.88
2018-10-19T06:51:48.103Z,196.88
2018-10-19T06:52:48.115Z,196.88
2018-10-19T06:53:48.130Z,196.88
2018-10-19T06:54:48.140Z,202.50
2018-10-19T06:55:48.154Z,208.13
2018-10-19T06:56:48.170Z,219.38
2018-10-19T06:57:48.189Z,213.75
2018-10-19T06:58:48.213Z,219.38
2018-10-19T06:59:48.220Z,225.00
2018-10-19T07:00:48.231Z,230.63
2018-10-19T07:01:48.257Z,230.63
2018-10-19T07:02:48.267Z,236.25
2018-10-19T07:03:48.282Z,241.88
2018-10-19T07:04:48.299Z,241.88
2018-10-19T07:05:48.388Z,247.50
2018-10-19T07:06:48.338Z,241.88
2018-10-19T07:07:48.362Z,247.50
2018-10-19T07:08:48.367Z,247.50
2018-10-19T07:09:48.394Z,253.13
2018-10-19T07:10:48.404Z,258.75
2018-10-19T07:11:48.420Z,264.38
2018-10-19T07:12:48.428Z,270.00
2018-10-19T07:13:48.453Z,275.63
2018-10-19T07:14:48.471Z,281.25
2018-10-19T07:15:48.526Z,286.88
2018-10-19T07:16:48.507Z,286.88
2018-10-19T07:17:48.520Z,292.50
2018-10-19T07:18:48.553Z,298.13
2018-10-19T07:19:48.549Z,298.13
2018-10-19T07:20:48.580Z,303.75
2018-10-19T07:21:48.652Z,309.38
2018-10-19T07:22:48.602Z,315.00
2018-10-19T07:23:48.627Z,320.63
2018-10-19T07:24:48.644Z,326.25
2018-10-19T07:25:48.660Z,331.88
2018-10-19T07:26:48.674Z,331.88
2018-10-19T07:27:48.701Z,331.88
2018-10-19T07:28:48.712Z,337.50
2018-10-19T07:29:48.734Z,343.13
2018-10-19T07:30:48.751Z,343.13
2018-10-19T07:31:48.764Z,348.75
2018-10-19T07:32:48.773Z,348.75
2018-10-19T07:33:48.799Z,348.75
2018-10-19T07:34:48.816Z,348.75
2018-10-19T07:35:48.828Z,354.38
2018-10-19T07:36:48.847Z,365.63
2018-10-19T07:37:48.875Z,376.88
2018-10-19T07:38:48.880Z,382.50
2018-10-19T07:39:48.897Z,388.13
2018-10-19T07:40:48.924Z,388.13
2018-10-19T07:41:48.948Z,388.13
2018-10-19T07:42:48.964Z,382.50
2018-10-19T07:43:48.979Z,388.13
2018-10-19T07:44:48.988Z,393.75
2018-10-19T07:45:49.002Z,393.75
2018-10-19T07:46:49.032Z,393.75
2018-10-19T07:47:49.158Z,399.38
2018-10-19T07:48:49.058Z,405.00
2018-10-19T07:49:49.085Z,410.63
2018-10-19T07:50:49.092Z,410.63
2018-10-19T07:51:49.107Z,410.63
2018-10-19T07:52:49.137Z,410.63
2018-10-19T07:53:49.150Z,410.63
2018-10-19T07:54:49.161Z,416.25
2018-10-19T07:55:49.188Z,421.88
2018-10-19T07:56:49.204Z,433.13
2018-10-19T07:57:49.219Z,438.75
2018-10-19T07:58:49.243Z,450.00
2018-10-19T07:59:49.255Z,455.63
2018-10-19T08:00:49.279Z,455.63
2018-10-19T08:01:49.291Z,455.63
2018-10-19T08:02:49.308Z,455.63
2018-10-19T08:03:49.334Z,450.00
2018-10-19T08:04:49.344Z,455.63
2018-10-19T08:05:49.357Z,455.63
2018-10-19T08:06:49.385Z,455.63
2018-10-19T08:07:49.398Z,455.63
2018-10-19T08:08:49.416Z,455.63
2018-10-19T08:09:49.442Z,455.63
2018-10-19T08:10:49.453Z,466.88
2018-10-19T08:11:49.464Z,472.50
2018-10-19T08:12:49.493Z,483.75
2018-10-19T08:13:49.507Z,495.00
2018-10-19T08:14:49.535Z,495.00
2018-10-19T08:15:49.549Z,495.00
2018-10-19T08:16:49.560Z,489.38
2018-10-19T08:17:49.585Z,489.38
2018-10-19T08:18:49.601Z,489.38
2018-10-19T08:19:49.641Z,489.38
2018-10-19T08:20:49.642Z,489.38
2018-10-19T08:21:49.663Z,500.63
2018-10-19T08:22:49.674Z,500.63
2018-10-19T08:23:49.689Z,506.25
2018-10-19T08:24:49.719Z,511.88
2018-10-19T08:25:49.732Z,517.50
2018-10-19T08:26:49.744Z,523.13
2018-10-19T08:27:49.771Z,523.13
2018-10-19T08:28:49.787Z,523.13
2018-10-19T08:29:49.826Z,523.13
2018-10-19T08:30:49.825Z,517.50
2018-10-19T08:31:49.839Z,517.50
2018-10-19T08:32:49.859Z,517.50
2018-10-19T08:33:49.874Z,517.50
2018-10-19T08:34:49.902Z,511.88
2018-10-19T08:35:49.912Z,500.63
2018-10-19T08:36:49.932Z,489.38
2018-10-19T08:37:49.957Z,472.50
2018-10-19T08:38:49.972Z,455.63
2018-10-19T08:39:49.997Z,433.13
2018-10-19T08:40:50.008Z,416.25
2018-10-19T08:41:50.172Z,388.13
2018-10-19T08:42:50.049Z,382.50
2018-10-19T08:43:50.104Z,376.88
2018-10-19T08:44:50.088Z,388.13
2018-10-19T08:45:50.099Z,382.50
2018-10-19T08:46:50.135Z,354.38
2018-10-19T08:47:50.214Z,365.63
2018-10-19T08:48:50.159Z,343.13
2018-10-19T08:49:50.185Z,331.88
2018-10-19T08:50:50.195Z,337.50
2018-10-19T08:51:50.218Z,326.25
2018-10-19T08:52:50.237Z,303.75
2018-10-19T08:53:50.284Z,292.50
2018-10-19T08:54:50.318Z,286.88
2018-10-19T08:55:50.301Z,286.88
2018-10-19T08:56:50.309Z,286.88
2018-10-19T08:57:50.420Z,281.25
2018-10-19T08:58:50.356Z,281.25
2018-10-19T08:59:50.369Z,275.63
2018-10-19T09:00:50.392Z,281.25
2018-10-19T09:01:50.407Z,281.25
2018-10-19T09:02:50.421Z,286.88
2018-10-19T09:03:50.444Z,281.25
2018-10-19T09:04:50.459Z,275.63
2018-10-19T09:05:50.473Z,275.63
2018-10-19T09:06:50.495Z,270.00
2018-10-19T09:07:50.512Z,270.00
2018-10-19T09:08:50.527Z,270.00
2018-10-19T09:09:50.552Z,270.00
2018-10-19T09:10:50.575Z,275.63
2018-10-19T09:11:50.643Z,275.63
2018-10-19T09:12:50.730Z,275.63
2018-10-19T09:13:50.618Z,275.63
2018-10-19T09:14:50.645Z,275.63
2018-10-19T09:15:50.658Z,270.00
2018-10-19T09:16:50.668Z,264.38
2018-10-19T09:17:50.694Z,264.38
2018-10-19T09:18:50.708Z,264.38
2018-10-19T09:19:50.736Z,258.75
2018-10-19T09:20:50.755Z,258.75
2018-10-19T09:21:50.780Z,253.13
2018-10-19T09:22:50.789Z,253.13
2018-10-19T09:23:50.802Z,258.75
2018-10-19T09:24:50.818Z,258.75
2018-10-19T09:25:50.846Z,258.75
2018-10-19T09:26:50.857Z,253.13
2018-10-19T09:27:50.871Z,247.50
2018-10-19T09:28:50.905Z,247.50
2018-10-19T09:29:50.908Z,247.50
2018-10-19T09:30:50.927Z,247.50
2018-10-19T09:31:50.951Z,258.75
2018-10-19T09:32:50.961Z,253.13
2018-10-19T09:33:50.988Z,253.13
2018-10-19T09:34:50.998Z,253.13
2018-10-19T09:35:51.066Z,258.75
2018-10-19T09:36:51.089Z,258.75
2018-10-19T09:37:51.056Z,258.75
2018-10-19T09:38:51.319Z,258.75
2018-10-19T09:39:51.094Z,258.75
2018-10-19T09:40:51.144Z,258.75
2018-10-19T09:41:51.130Z,264.38
2018-10-19T09:42:51.149Z,270.00
2018-10-19T09:43:51.162Z,275.63
2018-10-19T09:44:51.172Z,275.63
2018-10-19T09:45:51.197Z,275.63
2018-10-19T09:46:51.217Z,275.63
2018-10-19T09:47:51.234Z,281.25
2018-10-19T09:48:51.254Z,281.25
2018-10-19T09:49:51.279Z,286.88
2018-10-19T09:50:51.280Z,286.88
2018-10-19T09:51:51.305Z,292.50
2018-10-19T09:52:51.321Z,286.88
2018-10-19T09:53:51.347Z,286.88
2018-10-19T09:54:51.358Z,286.88
2018-10-19T09:55:51.372Z,292.50
2018-10-19T09:56:51.389Z,292.50
2018-10-19T09:57:51.416Z,292.50
2018-10-19T09:58:51.680Z,286.88
2018-10-19T09:59:51.456Z,286.88
2018-10-19T10:00:51.469Z,292.50
2018-10-19T10:01:51.501Z,286.88
2018-10-19T10:02:51.507Z,292.50
2018-10-19T10:03:51.522Z,286.88
2018-10-19T10:04:51.536Z,275.63
2018-10-19T10:05:51.556Z,275.63
2018-10-19T10:06:51.573Z,270.00
2018-10-19T10:07:51.607Z,270.00
2018-10-19T10:08:51.619Z,270.00
2018-10-19T10:09:51.629Z,264.38
2018-10-19T10:10:51.651Z,264.38
2018-10-19T10:11:51.663Z,264.38
2018-10-19T10:12:51.682Z,264.38
2018-10-19T10:13:51.709Z,264.38
2018-10-19T10:14:51.768Z,264.38
2018-10-19T10:15:51.811Z,264.38
2018-10-19T10:16:51.755Z,264.38
2018-10-19T10:17:51.768Z,264.38
2018-10-19T10:18:52.091Z,264.38
2018-10-19T10:19:51.814Z,270.00
2018-10-19T10:20:51.822Z,270.00
2018-10-19T10:21:51.862Z,270.00
2018-10-19T10:22:51.863Z,275.63
2018-10-19T10:23:51.874Z,275.63
2018-10-19T10:24:51.931Z,275.63
2018-10-19T10:25:51.918Z,275.63
2018-10-19T10:26:51.929Z,275.63
2018-10-19T10:27:51.953Z,275.63
2018-10-19T10:28:51.971Z,270.00
2018-10-19T10:29:51.997Z,270.00
2018-10-19T10:30:52.017Z,270.00
2018-10-19T10:31:52.028Z,270.00
2018-10-19T10:32:52.055Z,270.00
2018-10-19T10:33:52.063Z,270.00
2018-10-19T10:34:52.090Z,270.00
2018-10-19T10:35:52.104Z,270.00
2018-10-19T10:36:52.114Z,270.00
2018-10-19T10:37:52.139Z,270.00
2018-10-19T10:38:52.421Z,270.00
2018-10-19T10:39:52.171Z,270.00
2018-10-19T10:40:52.217Z,275.63
2018-10-19T10:41:52.212Z,275.63
2018-10-19T10:42:52.256Z,270.00
2018-10-19T10:43:52.244Z,270.00
2018-10-19T10:44:52.264Z,264.38
2018-10-19T10:45:52.343Z,264.38
2018-10-19T10:46:52.318Z,258.75
2018-10-19T10:47:52.343Z,258.75
2018-10-19T10:48:52.375Z,253.13
2018-10-19T10:49:52.353Z,253.13
2018-10-19T10:50:52.381Z,247.50
2018-10-19T10:51:52.446Z,247.50
2018-10-19T10:52:52.418Z,247.50
2018-10-19T10:53:52.429Z,247.50
2018-10-19T10:54:52.470Z,247.50
2018-10-19T10:55:52.472Z,247.50
2018-10-19T10:56:52.490Z,247.50
2018-10-19T10:57:52.532Z,247.50
2018-10-19T10:58:52.775Z,241.88
2018-10-19T10:59:52.551Z,241.88
2018-10-19T11:00:52.573Z,247.50
2018-10-19T11:01:52.594Z,247.50
2018-10-19T11:02:52.606Z,247.50
2018-10-19T11:03:52.622Z,253.13
2018-10-19T11:04:52.642Z,253.13
2018-10-19T11:05:52.655Z,253.13
2018-10-19T11:06:52.742Z,253.13
2018-10-19T11:07:52.700Z,258.75
2018-10-19T11:08:52.711Z,253.13
2018-10-19T11:09:52.759Z,253.13
2018-10-19T11:10:52.746Z,253.13
2018-10-19T11:11:52.773Z,253.13
2018-10-19T11:12:52.794Z,253.13
2018-10-19T11:13:52.817Z,247.50
2018-10-19T11:14:52.826Z,247.50
2018-10-19T11:15:52.853Z,247.50
2018-10-19T11:16:52.870Z,247.50
2018-10-19T11:17:52.883Z,247.50
2018-10-19T11:18:52.961Z,247.50
2018-10-19T11:19:52.926Z,253.13
2018-10-19T11:20:52.934Z,247.50
2018-10-19T11:21:52.966Z,241.88
2018-10-19T11:22:52.977Z,241.88
2018-10-19T11:23:53.062Z,241.88
2018-10-19T11:24:53.042Z,241.88
2018-10-19T11:25:53.027Z,241.88
2018-10-19T11:26:53.053Z,241.88
2018-10-19T11:27:53.082Z,247.50
2018-10-19T11:28:53.113Z,247.50
2018-10-19T11:29:53.112Z,253.13
2018-10-19T11:30:53.162Z,253.13
2018-10-19T11:31:53.146Z,258.75
2018-10-19T11:32:53.165Z,247.50
2018-10-19T11:33:53.241Z,241.88
2018-10-19T11:34:53.201Z,236.25
2018-10-19T11:35:53.226Z,230.63
2018-10-19T11:36:53.238Z,225.00
2018-10-19T11:37:53.301Z,219.38
2018-10-19T11:38:53.532Z,219.38
2018-10-19T11:39:53.351Z,219.38
2018-10-19T11:40:53.318Z,219.38
2018-10-19T11:41:53.331Z,219.38
2018-10-19T11:42:53.362Z,219.38
2018-10-19T11:43:53.368Z,225.00
2018-10-19T11:44:53.387Z,219.38
2018-10-19T11:45:53.439Z,213.75
2018-10-19T11:46:53.424Z,213.75
2018-10-19T11:47:53.450Z,208.13
2018-10-19T11:48:53.500Z,208.13
2018-10-19T11:49:53.483Z,208.13
2018-10-19T11:50:53.505Z,208.13
2018-10-19T11:51:53.535Z,213.75
2018-10-19T11:52:53.541Z,219.38
2018-10-19T11:53:53.554Z,219.38
2018-10-19T11:54:53.588Z,213.75
2018-10-19T11:55:53.599Z,219.38
2018-10-19T11:56:53.613Z,219.38
2018-10-19T11:57:53.675Z,219.38
2018-10-19T11:58:53.896Z,219.38
2018-10-19T11:59:53.672Z,219.38
2018-10-19T12:00:53.693Z,219.38
2018-10-19T12:01:53.717Z,219.38
2018-10-19T12:02:53.726Z,219.38
2018-10-19T12:03:53.787Z,219.38
2018-10-19T12:04:53.770Z,219.38
2018-10-19T12:05:53.782Z,219.38
2018-10-19T12:06:53.824Z,219.38
2018-10-19T12:07:53.825Z,219.38
2018-10-19T12:08:53.847Z,219.38
2018-10-19T12:09:53.869Z,219.38
2018-10-19T12:10:53.876Z,219.38
2018-10-19T12:11:53.902Z,219.38
2018-10-19T12:12:53.968Z,219.38
2018-10-19T12:13:53.938Z,219.38
2018-10-19T12:14:53.985Z,219.38
2018-10-19T12:15:53.981Z,219.38
2018-10-19T12:16:54.111Z,219.38
2018-10-19T12:17:54.024Z,213.75
2018-10-19T12:18:54.320Z,219.38
2018-10-19T12:19:54.058Z,213.75
2018-10-19T12:20:54.136Z,213.75
2018-10-19T12:21:54.091Z,213.75
2018-10-19T12:22:54.114Z,213.75
2018-10-19T12:23:54.132Z,213.75
2018-10-19T12:24:54.160Z,213.75
2018-10-19T12:25:54.203Z,213.75
2018-10-19T12:26:54.198Z,213.75
2018-10-19T12:27:54.220Z,208.13
2018-10-19T12:28:54.217Z,208.13
2018-10-19T12:29:54.243Z,208.13
2018-10-19T12:30:54.275Z,208.13
2018-10-19T12:31:54.281Z,208.13
2018-10-19T12:32:54.349Z,208.13
2018-10-19T12:33:54.326Z,208.13
2018-10-19T12:34:54.346Z,208.13
2018-10-19T12:35:54.360Z,202.50
2018-10-19T12:36:54.439Z,202.50
2018-10-19T12:37:54.389Z,202.50
2018-10-19T12:38:54.464Z,202.50
2018-10-19T12:39:54.432Z,202.50
2018-10-19T12:40:54.513Z,202.50
2018-10-19T12:41:54.467Z,202.50
2018-10-19T12:42:54.518Z,202.50
2018-10-19T12:43:54.509Z,202.50
2018-10-19T12:44:54.549Z,202.50
2018-10-19T12:45:54.547Z,202.50
2018-10-19T12:46:54.560Z,202.50
2018-10-19T12:47:54.587Z,202.50
2018-10-19T12:48:54.627Z,196.88
2018-10-19T12:49:54.630Z,196.88
2018-10-19T12:50:54.689Z,196.88